createdAt,value
2023-01-02T00:01:41.507Z,98680.00
2023-01-02T00:04:10.034Z,98680.91
2023-01-02T00:06:38.742Z,98676.69
2023-01-02T00:09:08.099Z,98671.59
2023-01-02T00:11:36.574Z,98671.84
2023-01-02T00:14:04.992Z,98665.81
2023-01-02T00:16:33.523Z,98664.28
2023-01-02T00:19:02.013Z,98665.47
2023-01-02T00:21:30.368Z,98666.06
2023-01-02T00:23:58.724Z,98675.72
2023-01-02T00:26:27.115Z,98669.03
2023-01-02T00:28:55.755Z,98676.06
2023-01-02T00:31:25.504Z,98667.59
2023-01-02T00:33:53.918Z,98670.31
2023-01-02T00:36:23.841Z,98670.31
2023-01-02T00:38:55.807Z,98669.75
2023-01-02T00:41:24.211Z,98670.09
2023-01-02T00:43:52.662Z,98672.56
2023-01-02T00:46:21.446Z,98678.34
2023-01-02T00:48:49.962Z,98669.63
2023-01-02T00:51:19.281Z,98679.13
2023-01-02T00:53:47.624Z,98677.25
2023-01-02T00:56:16.076Z,98677.03
2023-01-02T00:58:44.425Z,98677.75
2023-01-02T01:01:12.947Z,98680.78
2023-01-02T01:03:43.654Z,98681.56
2023-01-02T01:06:12.104Z,98666.03
2023-01-02T01:08:40.721Z,98663.69
2023-01-02T01:11:11.667Z,98654.97
2023-01-02T01:13:40.142Z,98655.94
2023-01-02T01:16:10.671Z,98653.03
2023-01-02T01:18:39.145Z,98654.66
2023-01-02T01:21:26.899Z,98650.56
2023-01-02T01:23:55.638Z,98641.97
2023-01-02T01:26:24.098Z,98640.19
2023-01-02T01:28:56.030Z,98642.59
2023-01-02T01:31:24.631Z,98630.97
2023-01-02T01:33:53.016Z,98638.06
2023-01-02T01:36:22.838Z,98646.81
2023-01-02T01:38:51.341Z,98635.38
2023-01-02T01:41:21.323Z,98643.81
2023-01-02T01:43:54.901Z,98642.31
2023-01-02T01:46:42.659Z,98639.03
2023-01-02T01:49:14.250Z,98640.59
2023-01-02T01:51:52.349Z,98638.72
2023-01-02T01:54:26.545Z,98630.13
2023-01-02T01:56:57.721Z,98643.06
2023-01-02T01:59:26.119Z,98635.06
2023-01-02T02:01:54.615Z,98628.91
2023-01-02T02:04:23.317Z,98640.47
2023-01-02T02:06:51.670Z,98625.59
2023-01-02T02:09:26.359Z,98632.38
2023-01-02T02:11:55.412Z,98628.06
2023-01-02T02:14:23.769Z,98635.59
2023-01-02T02:17:01.035Z,98631.06
2023-01-02T02:19:56.750Z,98624.47
2023-01-02T02:22:55.986Z,98629.41
2023-01-02T02:25:50.242Z,98635.53
2023-01-02T02:28:31.124Z,98629.59
2023-01-02T02:31:28.824Z,98626.28
2023-01-02T02:34:21.459Z,98622.03
2023-01-02T02:36:56.685Z,98618.63
2023-01-02T02:39:36.053Z,98619.16
2023-01-02T02:42:09.902Z,98612.50
2023-01-02T02:44:56.507Z,98608.22
2023-01-02T02:47:25.042Z,98610.09
2023-01-02T02:50:05.497Z,98612.59
2023-01-02T02:52:35.328Z,98608.44
2023-01-02T02:55:20.330Z,98607.47
2023-01-02T02:57:48.823Z,98598.13
2023-01-02T03:00:19.983Z,98602.63
2023-01-02T03:02:48.690Z,98605.78
2023-01-02T03:05:22.097Z,98601.47
2023-01-02T03:07:59.186Z,98585.72
2023-01-02T03:10:35.944Z,98585.50
2023-01-02T03:13:40.975Z,98588.25
2023-01-02T03:16:16.732Z,98595.25
2023-01-02T03:19:01.809Z,98587.59
2023-01-02T03:21:34.289Z,98585.56
2023-01-02T03:24:06.240Z,98578.41
2023-01-02T03:26:35.180Z,98580.47
2023-01-02T03:29:07.371Z,98581.97
2023-01-02T03:31:37.969Z,98587.31
2023-01-02T03:34:14.249Z,98578.94
2023-01-02T03:36:43.763Z,98590.00
2023-01-02T03:39:15.616Z,98594.28
2023-01-02T03:41:48.488Z,98598.31
2023-01-02T03:44:16.912Z,98599.72
2023-01-02T03:46:50.543Z,98605.13
2023-01-02T03:49:31.980Z,98611.59
2023-01-02T03:52:00.352Z,98612.47
2023-01-02T03:54:28.806Z,98609.66
2023-01-02T03:57:07.716Z,98623.56
2023-01-02T03:59:48.327Z,98621.53
2023-01-02T04:02:43.511Z,98628.56
2023-01-02T04:05:25.646Z,98634.22
2023-01-02T04:08:04.318Z,98639.44
2023-01-02T04:10:32.761Z,98637.91
2023-01-02T04:13:03.045Z,98633.50
2023-01-02T04:15:33.816Z,98644.81
2023-01-02T04:18:13.786Z,98643.97
2023-01-02T04:20:44.919Z,98652.59
2023-01-02T04:23:38.121Z,98650.19
2023-01-02T04:26:16.464Z,98655.19
2023-01-02T04:28:44.832Z,98661.31
2023-01-02T04:31:28.183Z,98654.25
2023-01-02T04:33:59.051Z,98663.50
2023-01-02T04:36:27.486Z,98657.69
2023-01-02T04:38:55.884Z,98661.22
2023-01-02T04:41:28.437Z,98661.59
2023-01-02T04:43:57.097Z,98662.03
2023-01-02T04:46:26.248Z,98656.25
2023-01-02T04:48:55.171Z,98656.28
2023-01-02T04:51:23.697Z,98656.25
2023-01-02T04:53:53.396Z,98649.69
2023-01-02T04:56:21.849Z,98651.31
2023-01-02T04:58:50.534Z,98644.88
2023-01-02T05:01:20.301Z,98650.63
2023-01-02T05:03:51.675Z,98648.69
2023-01-02T05:06:20.292Z,98648.38
2023-01-02T05:08:48.603Z,98648.72
2023-01-02T05:11:18.678Z,98646.28
2023-01-02T05:13:47.063Z,98649.03
2023-01-02T05:16:15.556Z,98652.09
2023-01-02T05:18:44.020Z,98648.50
2023-01-02T05:21:31.746Z,98643.81
2023-01-02T05:24:02.207Z,98656.81
2023-01-02T05:26:33.348Z,98648.59
2023-01-02T05:29:01.973Z,98654.94
2023-01-02T05:31:30.478Z,98653.00
2023-01-02T05:33:59.506Z,98664.47
2023-01-02T05:36:27.927Z,98658.34
2023-01-02T05:38:56.518Z,98663.91
2023-01-02T05:41:24.820Z,98661.50
2023-01-02T05:43:54.556Z,98666.16
2023-01-02T05:46:22.998Z,98663.31
2023-01-02T05:48:51.358Z,98661.00
2023-01-02T05:51:20.808Z,98653.66
2023-01-02T05:53:49.390Z,98666.34
2023-01-02T05:56:19.396Z,98673.22
2023-01-02T05:58:48.711Z,98668.09
2023-01-02T06:01:19.460Z,98675.00
2023-01-02T06:03:51.810Z,98674.47
2023-01-02T06:06:25.355Z,98669.41
2023-01-02T06:08:54.299Z,98674.50
2023-01-02T06:11:23.673Z,98672.94
2023-01-02T06:13:52.747Z,98689.06
2023-01-02T06:16:21.455Z,98679.28
2023-01-02T06:18:50.027Z,98682.47
2023-01-02T06:21:19.571Z,98680.88
2023-01-02T06:23:48.270Z,98691.53
2023-01-02T06:26:18.668Z,98695.81
2023-01-02T06:28:49.316Z,98697.44
2023-01-02T06:31:20.410Z,98691.84
2023-01-02T06:33:48.877Z,98694.66
2023-01-02T06:36:18.252Z,98693.00
2023-01-02T06:38:46.768Z,98684.78
2023-01-02T06:41:15.316Z,98699.00
2023-01-02T06:43:45.182Z,98678.78
2023-01-02T06:46:14.497Z,98686.19
2023-01-02T06:48:43.153Z,98675.56
2023-01-02T06:51:13.437Z,98687.78
2023-01-02T06:53:42.341Z,98684.03
2023-01-02T06:56:11.375Z,98683.88
2023-01-02T06:58:39.992Z,98693.09
2023-01-02T07:01:15.661Z,98679.44
2023-01-02T07:03:44.178Z,98687.28
2023-01-02T07:06:14.637Z,98691.75
2023-01-02T07:08:46.079Z,98695.31
2023-01-02T07:11:19.353Z,98696.19
2023-01-02T07:13:48.478Z,98692.56
2023-01-02T07:16:17.838Z,98686.94
2023-01-02T07:18:46.333Z,98692.06
2023-01-02T07:21:15.225Z,98686.53
2023-01-02T07:23:43.702Z,98683.69
2023-01-02T07:26:12.670Z,98676.25
2023-01-02T07:28:41.094Z,98690.66
2023-01-02T07:31:12.979Z,98678.44
2023-01-02T07:33:42.745Z,98684.38
2023-01-02T07:36:13.153Z,98682.94
2023-01-02T07:38:41.669Z,98682.16
2023-01-02T07:41:18.379Z,98674.38
2023-01-02T07:43:46.996Z,98669.41
2023-01-02T07:46:16.892Z,98668.00
2023-01-02T07:48:45.782Z,98681.22
2023-01-02T07:51:17.413Z,98683.03
2023-01-02T07:53:48.208Z,98683.03
2023-01-02T07:56:16.690Z,98675.50
2023-01-02T07:58:45.228Z,98681.94
2023-01-02T08:01:13.900Z,98677.19
2023-01-02T08:03:42.508Z,98678.06
2023-01-02T08:06:12.917Z,98675.16
2023-01-02T08:08:41.481Z,98674.88
2023-01-02T08:11:11.770Z,98672.59
2023-01-02T08:13:40.283Z,98682.03
2023-01-02T08:16:11.000Z,98673.94
2023-01-02T08:18:40.517Z,98675.06
2023-01-02T08:21:10.414Z,98670.84
2023-01-02T08:23:38.911Z,98666.16
2023-01-02T08:26:08.900Z,98664.38
2023-01-02T08:28:38.100Z,98673.56
2023-01-02T08:31:14.585Z,98669.09
2023-01-02T08:33:43.021Z,98661.81
2023-01-02T08:36:11.547Z,98658.81
2023-01-02T08:38:41.348Z,98647.97
2023-01-02T08:41:09.918Z,98659.84
2023-01-02T08:43:38.389Z,98653.69
2023-01-02T08:46:07.817Z,98642.59
2023-01-02T08:48:36.554Z,98648.69
2023-01-02T08:51:05.229Z,98653.63
2023-01-02T08:53:33.683Z,98651.38
2023-01-02T08:56:22.287Z,98648.50
2023-01-02T08:58:58.912Z,98634.28
2023-01-02T09:01:28.245Z,98642.41
2023-01-02T09:03:56.871Z,98635.34
2023-01-02T09:06:26.210Z,98623.88
2023-01-02T09:08:56.102Z,98622.25
2023-01-02T09:11:32.438Z,98621.81
2023-01-02T09:14:01.143Z,98615.28
2023-01-02T09:16:29.711Z,98605.06
2023-01-02T09:18:59.568Z,98599.38
2023-01-02T09:21:29.943Z,98596.34
2023-01-02T09:23:58.433Z,98591.44
2023-01-02T09:26:26.821Z,98586.09
2023-01-02T09:28:55.437Z,98580.56
2023-01-02T09:31:24.072Z,98572.47
2023-01-02T09:33:53.548Z,98577.03
2023-01-02T09:36:22.420Z,98573.34
2023-01-02T09:38:58.086Z,98563.50
2023-01-02T09:41:42.953Z,98558.56
2023-01-02T09:44:34.109Z,98557.81
2023-01-02T09:47:05.906Z,98556.78
2023-01-02T09:49:39.795Z,98548.81
2023-01-02T09:52:08.968Z,98547.72
2023-01-02T09:54:37.546Z,98541.81
2023-01-02T09:57:27.267Z,98542.13
2023-01-02T10:00:10.521Z,98544.16
2023-01-02T10:03:11.764Z,98529.38
2023-01-02T10:05:59.335Z,98531.50
2023-01-02T10:08:57.092Z,98522.31
2023-01-02T10:11:40.392Z,98521.41
2023-01-02T10:14:36.001Z,98523.16
2023-01-02T10:17:08.853Z,98511.91
2023-01-02T10:19:55.408Z,98520.06
2023-01-02T10:22:29.340Z,98514.31
2023-01-02T10:25:16.099Z,98508.25
2023-01-02T10:27:48.212Z,98503.22
2023-01-02T10:30:22.659Z,98504.53
2023-01-02T10:32:59.062Z,98498.88
2023-01-02T10:35:42.059Z,98498.72
2023-01-02T10:38:15.843Z,98480.34
2023-01-02T10:40:46.865Z,98484.88
2023-01-02T10:43:15.466Z,98484.63
2023-01-02T10:45:44.427Z,98479.53
2023-01-02T10:48:13.050Z,98472.41
2023-01-02T10:50:43.711Z,98470.81
2023-01-02T10:53:22.311Z,98457.56
2023-01-02T10:55:50.831Z,98460.97
2023-01-02T10:58:26.864Z,98450.78
2023-01-02T11:01:19.419Z,98443.97
2023-01-02T11:04:12.728Z,98451.88
2023-01-02T11:06:53.067Z,98452.97
2023-01-02T11:09:36.195Z,98442.28
2023-01-02T11:12:07.567Z,98445.09
2023-01-02T11:14:36.629Z,98448.53
2023-01-02T11:17:16.108Z,98437.13
2023-01-02T11:19:46.163Z,98438.94
2023-01-02T11:22:16.394Z,98432.38
2023-01-02T11:24:59.605Z,98424.72
2023-01-02T11:27:36.311Z,98421.03
2023-01-02T11:30:06.757Z,98424.53
2023-01-02T11:32:41.616Z,98415.13
2023-01-02T11:35:34.627Z,98406.63
2023-01-02T11:38:03.666Z,98413.53
2023-01-02T11:40:33.417Z,98412.13
2023-01-02T11:43:24.319Z,98408.38
2023-01-02T11:45:53.061Z,98404.47
2023-01-02T11:48:23.422Z,98396.41
2023-01-02T11:50:52.044Z,98397.63
2023-01-02T11:53:34.803Z,98395.81
2023-01-02T11:56:11.500Z,98382.78
2023-01-02T11:58:59.635Z,98371.78
2023-01-02T12:01:39.695Z,98383.56
2023-01-02T12:04:08.187Z,98378.56
2023-01-02T12:06:45.688Z,98368.28
2023-01-02T12:09:15.720Z,98382.06
2023-01-02T12:12:14.206Z,98379.22
2023-01-02T12:15:16.229Z,98376.69
2023-01-02T12:17:57.049Z,98373.03
2023-01-02T12:20:45.719Z,98368.38
2023-01-02T12:23:17.519Z,98355.06
2023-01-02T12:25:56.803Z,98353.81
2023-01-02T12:28:51.486Z,98350.34
2023-01-02T12:31:41.671Z,98351.50
2023-01-02T12:34:30.976Z,98350.84
2023-01-02T12:37:09.528Z,98352.47
2023-01-02T12:39:56.504Z,98343.19
2023-01-02T12:42:47.923Z,98349.97
2023-01-02T12:45:53.525Z,98338.47
2023-01-02T12:48:46.533Z,98334.63
2023-01-02T12:51:39.889Z,98332.84
2023-01-02T12:54:23.813Z,98342.75
2023-01-02T12:57:22.337Z,98343.31
2023-01-02T13:00:03.799Z,98339.66
2023-01-02T13:02:59.690Z,98332.72
2023-01-02T13:05:46.723Z,98338.72
2023-01-02T13:08:19.677Z,98328.63
2023-01-02T13:10:48.286Z,98329.13
2023-01-02T13:13:17.127Z,98331.53
2023-01-02T13:15:49.775Z,98323.81
2023-01-02T13:18:38.274Z,98329.63
2023-01-02T13:21:28.976Z,98320.16
2023-01-02T13:23:57.596Z,98321.72
2023-01-02T13:26:27.505Z,98326.50
2023-01-02T13:29:03.920Z,98330.47
2023-01-02T13:31:46.618Z,98322.06
2023-01-02T13:34:21.797Z,98320.22
2023-01-02T13:36:51.071Z,98315.00
2023-01-02T13:39:24.575Z,98314.78
2023-01-02T13:42:12.953Z,98318.72
2023-01-02T13:44:43.833Z,98321.81
2023-01-02T13:47:25.685Z,98330.97
2023-01-02T13:50:19.797Z,98319.94
2023-01-02T13:53:12.593Z,98309.44
2023-01-02T13:55:40.884Z,98311.56
2023-01-02T13:58:15.486Z,98318.53
2023-01-02T14:00:57.128Z,98318.66
2023-01-02T14:03:32.995Z,98323.97
2023-01-02T14:06:06.028Z,98310.63
2023-01-02T14:08:39.175Z,98308.25
2023-01-02T14:11:09.419Z,98307.81
2023-01-02T14:13:44.726Z,98308.47
2023-01-02T14:16:49.849Z,98323.63
2023-01-02T14:19:20.821Z,98322.78
2023-01-02T14:22:18.144Z,98318.34
2023-01-02T14:24:51.193Z,98317.19
2023-01-02T14:27:29.378Z,98309.03
2023-01-02T14:30:00.834Z,98313.50
2023-01-02T14:32:43.563Z,98318.03
2023-01-02T14:35:15.197Z,98317.38
2023-01-02T14:37:53.995Z,98323.25
2023-01-02T14:40:22.419Z,98319.63
2023-01-02T14:43:19.900Z,98340.94
2023-01-02T14:45:59.756Z,98322.25
2023-01-02T14:48:39.122Z,98325.50
2023-01-02T14:51:10.845Z,98322.94
2023-01-02T14:53:49.388Z,98320.47
2023-01-02T14:56:31.754Z,98326.22
2023-01-02T14:59:00.331Z,98323.41
2023-01-02T15:01:42.644Z,98327.34
2023-01-02T15:04:19.011Z,98319.78
2023-01-02T15:07:09.834Z,98322.50
2023-01-02T15:09:42.144Z,98331.56
2023-01-02T15:12:41.765Z,98329.66
2023-01-02T15:15:17.899Z,98328.50
2023-01-02T15:17:49.583Z,98334.25
2023-01-02T15:20:24.749Z,98331.03
2023-01-02T15:22:54.109Z,98335.00
2023-01-02T15:25:39.771Z,98331.78
2023-01-02T15:28:28.467Z,98342.47
2023-01-02T15:31:04.518Z,98343.28
2023-01-02T15:33:35.193Z,98339.97
2023-01-02T15:36:09.108Z,98348.53
2023-01-02T15:38:37.703Z,98345.84
2023-01-02T15:41:08.644Z,98344.22
2023-01-02T15:43:58.621Z,98345.53
2023-01-02T15:46:28.379Z,98344.00
2023-01-02T15:48:57.308Z,98348.50
2023-01-02T15:51:40.276Z,98340.84
2023-01-02T15:54:15.285Z,98343.81
2023-01-02T15:56:46.097Z,98349.41
2023-01-02T15:59:25.896Z,98350.59
2023-01-02T16:02:00.260Z,98356.66
2023-01-02T16:04:31.683Z,98349.50
2023-01-02T16:07:14.718Z,98350.69
2023-01-02T16:09:48.813Z,98343.72
2023-01-02T16:12:21.281Z,98357.03
2023-01-02T16:14:53.407Z,98348.66
2023-01-02T16:17:38.753Z,98357.44
2023-01-02T16:20:19.629Z,98358.81
2023-01-02T16:22:56.655Z,98363.22
2023-01-02T16:25:33.667Z,98363.38
2023-01-02T16:28:35.465Z,98360.59
2023-01-02T16:31:15.554Z,98367.16
2023-01-02T16:33:48.801Z,98366.97
2023-01-02T16:36:22.997Z,98366.97
2023-01-02T16:38:54.132Z,98367.59
2023-01-02T16:41:45.169Z,98369.91
2023-01-02T16:44:17.450Z,98368.16
2023-01-02T16:46:49.258Z,98367.94
2023-01-02T16:49:23.675Z,98361.22
2023-01-02T16:51:54.739Z,98361.41
2023-01-02T16:54:28.497Z,98361.19
2023-01-02T16:56:57.043Z,98365.31
2023-01-02T16:59:31.422Z,98367.66
2023-01-02T17:02:05.318Z,98363.88
2023-01-02T17:04:48.872Z,98371.22
2023-01-02T17:07:22.146Z,98366.41
2023-01-02T17:09:51.303Z,98365.72
2023-01-02T17:12:28.395Z,98363.22
2023-01-02T17:15:03.164Z,98375.50
2023-01-02T17:17:32.325Z,98369.25
2023-01-02T17:20:01.859Z,98372.63
2023-01-02T17:22:34.997Z,98372.63
2023-01-02T17:25:07.700Z,98373.03
2023-01-02T17:27:38.523Z,98375.56
2023-01-02T17:30:10.393Z,98374.88
2023-01-02T17:32:40.183Z,98380.81
2023-01-02T17:35:09.924Z,98382.97
2023-01-02T17:37:44.483Z,98379.97
2023-01-02T17:40:15.277Z,98374.00
2023-01-02T17:42:44.711Z,98380.97
2023-01-02T17:45:19.613Z,98380.84
2023-01-02T17:48:06.082Z,98381.75
2023-01-02T17:50:47.486Z,98386.81
2023-01-02T17:53:17.741Z,98387.75
2023-01-02T17:56:21.606Z,98385.38
2023-01-02T17:58:53.739Z,98396.41
2023-01-02T18:01:27.102Z,98393.09
2023-01-02T18:04:01.424Z,98391.81
2023-01-02T18:06:32.243Z,98397.16
2023-01-02T18:09:01.155Z,98399.34
2023-01-02T18:11:36.420Z,98399.91
2023-01-02T18:14:20.699Z,98399.38
2023-01-02T18:16:53.937Z,98394.88
2023-01-02T18:19:29.273Z,98395.56
2023-01-02T18:21:58.168Z,98385.94
2023-01-02T18:24:33.877Z,98390.97
2023-01-02T18:27:28.661Z,98397.34
2023-01-02T18:30:13.247Z,98394.50
2023-01-02T18:32:46.602Z,98399.50
2023-01-02T18:35:47.138Z,98403.00
2023-01-02T18:38:38.109Z,98390.72
2023-01-02T18:41:27.650Z,98392.13
2023-01-02T18:44:24.477Z,98395.06
2023-01-02T18:47:29.550Z,98399.38
2023-01-02T18:50:28.319Z,98398.50
2023-01-02T18:53:11.608Z,98400.97
2023-01-02T18:55:40.781Z,98396.47
2023-01-02T18:58:28.888Z,98394.16
2023-01-02T19:01:26.495Z,98397.69
2023-01-02T19:04:01.278Z,98402.56
2023-01-02T19:06:32.283Z,98400.63
2023-01-02T19:09:22.422Z,98398.13
2023-01-02T19:12:20.019Z,98397.66
2023-01-02T19:14:54.936Z,98383.16
2023-01-02T19:17:37.791Z,98405.75
2023-01-02T19:20:12.022Z,98400.69
2023-01-02T19:22:44.520Z,98392.03
2023-01-02T19:25:23.198Z,98393.44
2023-01-02T19:27:58.941Z,98400.53
2023-01-02T19:30:40.739Z,98398.66
2023-01-02T19:33:49.955Z,98401.63
2023-01-02T19:36:22.839Z,98391.81
2023-01-02T19:38:54.105Z,98393.03
2023-01-02T19:41:46.983Z,98402.97
2023-01-02T19:44:20.958Z,98396.47
2023-01-02T19:46:52.502Z,98398.38
2023-01-02T19:49:20.938Z,98402.97
2023-01-02T19:51:58.439Z,98390.09
2023-01-02T19:54:29.147Z,98400.16
2023-01-02T19:56:57.785Z,98387.69
2023-01-02T19:59:31.323Z,98398.19
2023-01-02T20:02:00.020Z,98394.09
2023-01-02T20:04:34.729Z,98387.41
2023-01-02T20:07:05.839Z,98396.50
2023-01-02T20:09:34.417Z,98396.97
2023-01-02T20:12:21.627Z,98400.69
2023-01-02T20:14:54.034Z,98399.59
2023-01-02T20:17:26.103Z,98402.75
2023-01-02T20:19:58.065Z,98398.31
2023-01-02T20:22:27.410Z,98402.97
2023-01-02T20:25:03.648Z,98398.22
2023-01-02T20:27:39.401Z,98403.84
2023-01-02T20:30:12.417Z,98401.06
2023-01-02T20:32:45.948Z,98387.59
2023-01-02T20:35:14.423Z,98395.75
2023-01-02T20:37:48.311Z,98402.66
2023-01-02T20:40:17.132Z,98394.09
2023-01-02T20:42:58.594Z,98395.28
2023-01-02T20:45:27.047Z,98395.69
2023-01-02T20:47:55.471Z,98396.53
2023-01-02T20:50:23.942Z,98391.59
2023-01-02T20:52:56.939Z,98389.97
2023-01-02T20:55:25.780Z,98392.03
2023-01-02T20:57:54.916Z,98395.25
2023-01-02T21:00:23.691Z,98394.28
2023-01-02T21:02:55.715Z,98399.28
2023-01-02T21:05:25.290Z,98396.88
2023-01-02T21:07:53.771Z,98401.06
2023-01-02T21:10:22.275Z,98392.69
2023-01-02T21:13:09.735Z,98398.47
2023-01-02T21:15:55.690Z,98389.28
2023-01-02T21:18:30.881Z,98389.47
2023-01-02T21:21:03.872Z,98401.66
2023-01-02T21:23:33.600Z,98383.09
2023-01-02T21:26:02.196Z,98383.78
2023-01-02T21:28:30.643Z,98395.81
2023-01-02T21:30:59.124Z,98390.31
2023-01-02T21:33:28.281Z,98394.91
2023-01-02T21:35:58.760Z,98393.84
2023-01-02T21:38:27.535Z,98390.78
2023-01-02T21:40:56.813Z,98389.03
2023-01-02T21:43:25.263Z,98394.16
2023-01-02T21:45:53.746Z,98397.75
2023-01-02T21:48:22.057Z,98394.38
2023-01-02T21:50:50.434Z,98393.53
2023-01-02T21:53:18.882Z,98388.06
2023-01-02T21:55:47.414Z,98391.22
2023-01-02T21:58:17.442Z,98389.94
2023-01-02T22:00:47.522Z,98381.44
2023-01-02T22:03:16.516Z,98388.13
2023-01-02T22:05:45.121Z,98397.81
2023-01-02T22:08:14.803Z,98378.34
2023-01-02T22:10:43.172Z,98387.00
2023-01-02T22:13:11.530Z,98376.38
2023-01-02T22:15:39.984Z,98375.56
2023-01-02T22:18:08.311Z,98367.16
2023-01-02T22:20:36.713Z,98363.13
2023-01-02T22:23:05.208Z,98369.25
2023-01-02T22:25:33.806Z,98366.22
2023-01-02T22:28:02.243Z,98364.59
2023-01-02T22:30:34.894Z,98362.66
2023-01-02T22:33:03.942Z,98362.19
2023-01-02T22:35:32.327Z,98354.19
2023-01-02T22:38:00.718Z,98350.16
2023-01-02T22:40:29.523Z,98355.59
2023-01-02T22:43:03.223Z,98352.06
2023-01-02T22:45:52.935Z,98350.78
2023-01-02T22:48:30.033Z,98351.13
2023-01-02T22:50:59.934Z,98346.81
2023-01-02T22:53:33.127Z,98346.97
2023-01-02T22:56:03.333Z,98347.16
2023-01-02T22:58:31.690Z,98348.28
2023-01-02T23:01:01.884Z,98356.59
2023-01-02T23:03:32.043Z,98346.34
2023-01-02T23:06:00.408Z,98346.53
2023-01-02T23:08:28.933Z,98334.03
2023-01-02T23:10:57.333Z,98344.44
2023-01-02T23:13:26.064Z,98343.13
2023-01-02T23:16:14.632Z,98335.03
2023-01-02T23:19:01.707Z,98333.22
2023-01-02T23:21:31.754Z,98342.78
2023-01-02T23:24:00.243Z,98344.28
2023-01-02T23:26:30.995Z,98329.72
2023-01-02T23:29:08.051Z,98338.06
2023-01-02T23:31:38.400Z,98330.56
2023-01-02T23:34:07.463Z,98330.41
2023-01-02T23:36:36.279Z,98340.69
2023-01-02T23:39:05.893Z,98332.44
2023-01-02T23:41:34.882Z,98342.16
2023-01-02T23:44:03.331Z,98330.91
2023-01-02T23:46:32.010Z,98329.75
2023-01-02T23:49:00.406Z,98325.91
2023-01-02T23:51:30.518Z,98329.59
2023-01-02T23:53:59.224Z,98342.19
2023-01-02T23:56:38.030Z,98323.16
2023-01-02T23:59:08.647Z,98329.91
